sensor_id;sensor_type;location;lat;lon;timestamp;P1;durP1;ratioP1;P2;durP2;ratioP2
21657;SDS011;10990;48.174;9.782;2023-03-30T00:01:54;8.77;;;2.03;;
21657;SDS011;10990;48.174;9.782;2023-03-30T00:04:22;6.75;;;1.92;;
21657;SDS011;10990;48.174;9.782;2023-03-30T00:06:51;9.35;;;1.88;;
21657;SDS011;10990;48.174;9.782;2023-03-30T00:09:18;7.43;;;1.90;;
21657;SDS011;10990;48.174;9.782;2023-03-30T00:11:46;11.20;;;2.25;;
21657;SDS011;10990;48.174;9.782;2023-03-30T00:14:14;6.90;;;1.85;;
21657;SDS011;10990;48.174;9.782;2023-03-30T00:16:42;9.82;;;2.22;;
21657;SDS011;10990;48.174;9.782;2023-03-30T00:19:08;7.97;;;2.05;;
21657;SDS011;10990;48.174;9.782;2023-03-30T00:21:36;7.63;;;1.90;;
21657;SDS011;10990;48.174;9.782;2023-03-30T00:24:03;11.77;;;1.83;;
21657;SDS011;10990;48.174;9.782;2023-03-30T00:26:30;12.85;;;2.10;;
21657;SDS011;10990;48.174;9.782;2023-03-30T00:28:57;9.02;;;1.90;;
21657;SDS011;10990;48.174;9.782;2023-03-30T00:31:24;9.90;;;2.08;;
21657;SDS011;10990;48.174;9.782;2023-03-30T00:33:51;8.93;;;2.10;;
21657;SDS011;10990;48.174;9.782;2023-03-30T00:36:18;9.55;;;2.30;;
21657;SDS011;10990;48.174;9.782;2023-03-30T00:38:46;8.85;;;1.92;;
21657;SDS011;10990;48.174;9.782;2023-03-30T00:41:13;12.30;;;2.00;;
21657;SDS011;10990;48.174;9.782;2023-03-30T00:43:53;6.88;;;1.85;;
21657;SDS011;10990;48.174;9.782;2023-03-30T00:46:22;7.43;;;1.98;;
21657;SDS011;10990;48.174;9.782;2023-03-30T00:48:49;13.48;;;2.05;;
21657;SDS011;10990;48.174;9.782;2023-03-30T00:51:16;7.90;;;2.05;;
21657;SDS011;10990;48.174;9.782;2023-03-30T00:53:46;12.52;;;2.00;;
21657;SDS011;10990;48.174;9.782;2023-03-30T00:56:16;9.45;;;1.85;;
21657;SDS011;10990;48.174;9.782;2023-03-30T00:58:47;12.63;;;2.47;;
21657;SDS011;10990;48.174;9.782;2023-03-30T01:01:14;10.68;;;2.13;;
21657;SDS011;10990;48.174;9.782;2023-03-30T01:03:49;9.45;;;1.60;;
21657;SDS011;10990;48.174;9.782;2023-03-30T01:06:17;9.57;;;1.88;;
21657;SDS011;10990;48.174;9.782;2023-03-30T01:08:49;12.60;;;2.08;;
21657;SDS011;10990;48.174;9.782;2023-03-30T01:11:18;13.73;;;2.53;;
21657;SDS011;10990;48.174;9.782;2023-03-30T01:13:46;10.43;;;2.08;;
21657;SDS011;10990;48.174;9.782;2023-03-30T01:16:17;9.50;;;2.22;;
21657;SDS011;10990;48.174;9.782;2023-03-30T01:18:54;8.00;;;1.92;;
21657;SDS011;10990;48.174;9.782;2023-03-30T01:21:38;7.32;;;1.73;;
21657;SDS011;10990;48.174;9.782;2023-03-30T01:27:52;8.65;;;2.15;;
21657;SDS011;10990;48.174;9.782;2023-03-30T01:33:55;7.90;;;1.80;;
21657;SDS011;10990;48.174;9.782;2023-03-30T01:36:48;12.10;;;2.13;;
21657;SDS011;10990;48.174;9.782;2023-03-30T01:39:35;8.75;;;2.03;;
21657;SDS011;10990;48.174;9.782;2023-03-30T01:42:11;5.07;;;1.58;;
21657;SDS011;10990;48.174;9.782;2023-03-30T01:44:45;7.53;;;1.60;;
21657;SDS011;10990;48.174;9.782;2023-03-30T01:47:18;8.15;;;1.90;;
21657;SDS011;10990;48.174;9.782;2023-03-30T01:49:51;6.78;;;1.75;;
21657;SDS011;10990;48.174;9.782;2023-03-30T01:52:24;7.00;;;2.28;;
21657;SDS011;10990;48.174;9.782;2023-03-30T01:54:59;9.02;;;1.77;;
21657;SDS011;10990;48.174;9.782;2023-03-30T01:57:32;10.25;;;2.10;;
21657;SDS011;10990;48.174;9.782;2023-03-30T02:00:06;8.80;;;1.85;;
21657;SDS011;10990;48.174;9.782;2023-03-30T02:02:39;7.90;;;1.70;;
21657;SDS011;10990;48.174;9.782;2023-03-30T02:05:12;7.30;;;1.80;;
21657;SDS011;10990;48.174;9.782;2023-03-30T02:07:42;8.20;;;2.05;;
21657;SDS011;10990;48.174;9.782;2023-03-30T02:10:16;4.70;;;1.90;;
21657;SDS011;10990;48.174;9.782;2023-03-30T02:12:47;9.70;;;2.08;;
21657;SDS011;10990;48.174;9.782;2023-03-30T02:15:16;8.10;;;1.98;;
21657;SDS011;10990;48.174;9.782;2023-03-30T02:17:44;9.55;;;1.75;;
21657;SDS011;10990;48.174;9.782;2023-03-30T02:20:11;9.90;;;1.95;;
21657;SDS011;10990;48.174;9.782;2023-03-30T02:22:42;13.68;;;2.55;;
21657;SDS011;10990;48.174;9.782;2023-03-30T02:25:09;9.45;;;2.25;;
21657;SDS011;10990;48.174;9.782;2023-03-30T02:27:38;11.02;;;2.47;;
21657;SDS011;10990;48.174;9.782;2023-03-30T02:30:06;9.63;;;2.10;;
21657;SDS011;10990;48.174;9.782;2023-03-30T02:32:37;9.23;;;2.50;;
21657;SDS011;10990;48.174;9.782;2023-03-30T02:35:11;9.57;;;2.58;;
21657;SDS011;10990;48.174;9.782;2023-03-30T02:41:02;6.03;;;2.03;;
21657;SDS011;10990;48.174;9.782;2023-03-30T02:43:43;7.63;;;1.90;;
21657;SDS011;10990;48.174;9.782;2023-03-30T02:49:11;10.40;;;2.08;;
21657;SDS011;10990;48.174;9.782;2023-03-30T02:51:49;6.78;;;1.95;;
21657;SDS011;10990;48.174;9.782;2023-03-30T02:54:29;10.10;;;2.60;;
21657;SDS011;10990;48.174;9.782;2023-03-30T02:57:24;4.80;;;1.70;;
21657;SDS011;10990;48.174;9.782;2023-03-30T03:00:22;5.65;;;1.85;;
21657;SDS011;10990;48.174;9.782;2023-03-30T03:02:58;6.93;;;2.00;;
21657;SDS011;10990;48.174;9.782;2023-03-30T03:05:31;6.13;;;1.90;;
21657;SDS011;10990;48.174;9.782;2023-03-30T03:08:05;8.85;;;2.35;;
21657;SDS011;10990;48.174;9.782;2023-03-30T03:10:32;7.57;;;2.25;;
21657;SDS011;10990;48.174;9.782;2023-03-30T03:13:01;7.35;;;1.60;;
21657;SDS011;10990;48.174;9.782;2023-03-30T03:15:30;10.07;;;2.40;;
21657;SDS011;10990;48.174;9.782;2023-03-30T03:18:04;10.07;;;2.30;;
21657;SDS011;10990;48.174;9.782;2023-03-30T03:20:31;9.52;;;2.10;;
21657;SDS011;10990;48.174;9.782;2023-03-30T03:23:00;11.20;;;2.35;;
21657;SDS011;10990;48.174;9.782;2023-03-30T03:25:29;7.88;;;2.40;;
21657;SDS011;10990;48.174;9.782;2023-03-30T03:28:00;6.47;;;2.60;;
21657;SDS011;10990;48.174;9.782;2023-03-30T03:30:35;8.27;;;2.03;;
21657;SDS011;10990;48.174;9.782;2023-03-30T03:33:07;9.18;;;2.30;;
21657;SDS011;10990;48.174;9.782;2023-03-30T03:35:35;9.05;;;2.67;;
21657;SDS011;10990;48.174;9.782;2023-03-30T03:38:05;9.68;;;2.80;;
21657;SDS011;10990;48.174;9.782;2023-03-30T03:40:33;7.82;;;2.13;;
21657;SDS011;10990;48.174;9.782;2023-03-30T03:43:00;12.65;;;3.03;;
21657;SDS011;10990;48.174;9.782;2023-03-30T03:45:27;11.07;;;2.40;;
21657;SDS011;10990;48.174;9.782;2023-03-30T03:48:00;7.68;;;2.40;;
21657;SDS011;10990;48.174;9.782;2023-03-30T03:50:39;12.55;;;2.75;;
21657;SDS011;10990;48.174;9.782;2023-03-30T03:53:06;12.60;;;2.72;;
21657;SDS011;10990;48.174;9.782;2023-03-30T03:55:34;8.05;;;2.70;;
21657;SDS011;10990;48.174;9.782;2023-03-30T03:58:01;13.27;;;2.50;;
21657;SDS011;10990;48.174;9.782;2023-03-30T04:00:28;12.77;;;2.65;;
21657;SDS011;10990;48.174;9.782;2023-03-30T04:02:55;12.93;;;3.53;;
21657;SDS011;10990;48.174;9.782;2023-03-30T04:05:24;12.13;;;3.08;;
21657;SDS011;10990;48.174;9.782;2023-03-30T04:07:51;10.20;;;2.63;;
21657;SDS011;10990;48.174;9.782;2023-03-30T04:10:20;11.25;;;2.85;;
21657;SDS011;10990;48.174;9.782;2023-03-30T04:13:06;8.38;;;2.67;;
21657;SDS011;10990;48.174;9.782;2023-03-30T04:15:51;15.68;;;3.20;;
21657;SDS011;10990;48.174;9.782;2023-03-30T04:18:35;9.50;;;2.53;;
21657;SDS011;10990;48.174;9.782;2023-03-30T04:21:10;9.48;;;2.70;;
21657;SDS011;10990;48.174;9.782;2023-03-30T04:24:03;10.10;;;2.53;;
21657;SDS011;10990;48.174;9.782;2023-03-30T04:26:49;10.25;;;2.47;;
21657;SDS011;10990;48.174;9.782;2023-03-30T04:29:18;9.45;;;3.03;;
21657;SDS011;10990;48.174;9.782;2023-03-30T04:32:06;10.85;;;2.53;;
21657;SDS011;10990;48.174;9.782;2023-03-30T04:34:50;12.55;;;2.67;;
21657;SDS011;10990;48.174;9.782;2023-03-30T04:37:46;12.07;;;2.53;;
21657;SDS011;10990;48.174;9.782;2023-03-30T04:40:48;8.48;;;2.55;;
21657;SDS011;10990;48.174;9.782;2023-03-30T04:43:22;7.53;;;2.20;;
21657;SDS011;10990;48.174;9.782;2023-03-30T04:46:02;10.45;;;2.47;;
21657;SDS011;10990;48.174;9.782;2023-03-30T04:48:47;16.02;;;2.90;;
21657;SDS011;10990;48.174;9.782;2023-03-30T04:51:36;10.40;;;2.70;;
21657;SDS011;10990;48.174;9.782;2023-03-30T04:54:13;10.53;;;2.50;;
21657;SDS011;10990;48.174;9.782;2023-03-30T04:56:58;9.55;;;2.95;;
21657;SDS011;10990;48.174;9.782;2023-03-30T05:00:04;12.27;;;3.25;;
21657;SDS011;10990;48.174;9.782;2023-03-30T05:02:59;9.65;;;2.80;;
21657;SDS011;10990;48.174;9.782;2023-03-30T05:05:44;8.32;;;2.50;;
21657;SDS011;10990;48.174;9.782;2023-03-30T05:08:27;9.40;;;2.65;;
21657;SDS011;10990;48.174;9.782;2023-03-30T05:11:17;8.48;;;2.40;;
21657;SDS011;10990;48.174;9.782;2023-03-30T05:13:53;8.10;;;2.50;;
21657;SDS011;10990;48.174;9.782;2023-03-30T05:16:35;11.38;;;2.55;;
21657;SDS011;10990;48.174;9.782;2023-03-30T05:19:17;12.02;;;3.47;;
21657;SDS011;10990;48.174;9.782;2023-03-30T05:22:07;10.75;;;2.67;;
21657;SDS011;10990;48.174;9.782;2023-03-30T05:24:49;9.95;;;3.35;;
21657;SDS011;10990;48.174;9.782;2023-03-30T05:27:25;11.05;;;3.53;;
21657;SDS011;10990;48.174;9.782;2023-03-30T05:30:02;11.82;;;3.80;;
21657;SDS011;10990;48.174;9.782;2023-03-30T05:33:01;16.93;;;3.47;;
21657;SDS011;10990;48.174;9.782;2023-03-30T05:35:54;14.90;;;3.03;;
21657;SDS011;10990;48.174;9.782;2023-03-30T05:38:47;15.30;;;3.37;;
21657;SDS011;10990;48.174;9.782;2023-03-30T05:41:52;16.05;;;3.33;;
21657;SDS011;10990;48.174;9.782;2023-03-30T05:44:41;9.25;;;3.15;;
21657;SDS011;10990;48.174;9.782;2023-03-30T05:47:26;20.08;;;6.65;;
21657;SDS011;10990;48.174;9.782;2023-03-30T05:50:11;17.35;;;8.98;;
21657;SDS011;10990;48.174;9.782;2023-03-30T05:52:53;11.77;;;5.53;;
21657;SDS011;10990;48.174;9.782;2023-03-30T05:55:31;11.67;;;3.80;;
21657;SDS011;10990;48.174;9.782;2023-03-30T05:58:27;13.52;;;3.97;;
21657;SDS011;10990;48.174;9.782;2023-03-30T06:01:14;7.85;;;3.20;;
21657;SDS011;10990;48.174;9.782;2023-03-30T06:03:44;16.17;;;3.88;;
21657;SDS011;10990;48.174;9.782;2023-03-30T06:06:10;10.68;;;3.20;;
21657;SDS011;10990;48.174;9.782;2023-03-30T06:08:39;10.40;;;3.22;;
21657;SDS011;10990;48.174;9.782;2023-03-30T06:11:09;11.57;;;2.90;;
21657;SDS011;10990;48.174;9.782;2023-03-30T06:13:45;5.88;;;2.60;;
21657;SDS011;10990;48.174;9.782;2023-03-30T06:16:12;8.80;;;3.13;;
21657;SDS011;10990;48.174;9.782;2023-03-30T06:18:40;11.30;;;3.15;;
21657;SDS011;10990;48.174;9.782;2023-03-30T06:21:11;11.55;;;3.42;;
21657;SDS011;10990;48.174;9.782;2023-03-30T06:23:58;9.20;;;2.75;;
21657;SDS011;10990;48.174;9.782;2023-03-30T06:26:28;9.32;;;2.83;;
21657;SDS011;10990;48.174;9.782;2023-03-30T06:28:55;11.73;;;2.88;;
21657;SDS011;10990;48.174;9.782;2023-03-30T06:31:22;10.13;;;2.55;;
21657;SDS011;10990;48.174;9.782;2023-03-30T06:33:59;12.63;;;2.95;;
21657;SDS011;10990;48.174;9.782;2023-03-30T06:36:27;11.52;;;2.92;;
21657;SDS011;10990;48.174;9.782;2023-03-30T06:38:53;10.95;;;2.83;;
21657;SDS011;10990;48.174;9.782;2023-03-30T06:41:20;12.65;;;2.90;;
21657;SDS011;10990;48.174;9.782;2023-03-30T06:43:48;12.90;;;3.03;;
21657;SDS011;10990;48.174;9.782;2023-03-30T06:46:18;11.93;;;3.58;;
21657;SDS011;10990;48.174;9.782;2023-03-30T06:48:47;12.40;;;2.85;;
21657;SDS011;10990;48.174;9.782;2023-03-30T06:51:34;13.10;;;3.10;;
21657;SDS011;10990;48.174;9.782;2023-03-30T06:54:02;10.77;;;3.22;;
21657;SDS011;10990;48.174;9.782;2023-03-30T06:56:29;11.70;;;3.38;;
21657;SDS011;10990;48.174;9.782;2023-03-30T06:59:08;10.82;;;3.25;;
21657;SDS011;10990;48.174;9.782;2023-03-30T07:01:53;8.68;;;3.20;;
21657;SDS011;10990;48.174;9.782;2023-03-30T07:04:33;13.13;;;3.15;;
21657;SDS011;10990;48.174;9.782;2023-03-30T07:07:21;7.53;;;2.85;;
21657;SDS011;10990;48.174;9.782;2023-03-30T07:09:48;9.85;;;3.47;;
21657;SDS011;10990;48.174;9.782;2023-03-30T07:12:15;9.60;;;3.10;;
21657;SDS011;10990;48.174;9.782;2023-03-30T07:14:43;11.60;;;3.83;;
21657;SDS011;10990;48.174;9.782;2023-03-30T07:17:10;9.40;;;3.17;;
21657;SDS011;10990;48.174;9.782;2023-03-30T07:19:37;8.40;;;2.92;;
21657;SDS011;10990;48.174;9.782;2023-03-30T07:22:04;9.88;;;2.88;;
21657;SDS011;10990;48.174;9.782;2023-03-30T07:24:32;10.18;;;2.90;;
21657;SDS011;10990;48.174;9.782;2023-03-30T07:26:59;6.97;;;1.90;;
21657;SDS011;10990;48.174;9.782;2023-03-30T07:29:26;10.40;;;2.17;;
21657;SDS011;10990;48.174;9.782;2023-03-30T07:31:54;6.25;;;1.90;;
21657;SDS011;10990;48.174;9.782;2023-03-30T07:34:21;8.00;;;2.00;;
21657;SDS011;10990;48.174;9.782;2023-03-30T07:36:54;9.02;;;2.05;;
21657;SDS011;10990;48.174;9.782;2023-03-30T07:39:26;6.15;;;2.08;;
21657;SDS011;10990;48.174;9.782;2023-03-30T07:41:54;9.30;;;2.17;;
21657;SDS011;10990;48.174;9.782;2023-03-30T07:44:22;9.40;;;2.10;;
21657;SDS011;10990;48.174;9.782;2023-03-30T07:46:49;7.32;;;2.00;;
21657;SDS011;10990;48.174;9.782;2023-03-30T07:49:21;7.25;;;2.00;;
21657;SDS011;10990;48.174;9.782;2023-03-30T07:51:48;5.57;;;2.20;;
21657;SDS011;10990;48.174;9.782;2023-03-30T07:54:20;9.63;;;2.60;;
21657;SDS011;10990;48.174;9.782;2023-03-30T07:57:12;8.20;;;2.30;;
21657;SDS011;10990;48.174;9.782;2023-03-30T07:59:39;8.02;;;2.25;;
21657;SDS011;10990;48.174;9.782;2023-03-30T08:02:16;8.13;;;2.10;;
21657;SDS011;10990;48.174;9.782;2023-03-30T08:04:52;7.82;;;2.10;;
21657;SDS011;10990;48.174;9.782;2023-03-30T08:07:28;9.63;;;2.28;;
21657;SDS011;10990;48.174;9.782;2023-03-30T08:10:06;15.38;;;2.95;;
21657;SDS011;10990;48.174;9.782;2023-03-30T08:12:35;9.05;;;2.65;;
21657;SDS011;10990;48.174;9.782;2023-03-30T08:15:02;6.85;;;2.53;;
21657;SDS011;10990;48.174;9.782;2023-03-30T08:17:29;7.85;;;2.28;;
21657;SDS011;10990;48.174;9.782;2023-03-30T08:19:56;7.78;;;2.25;;
21657;SDS011;10990;48.174;9.782;2023-03-30T08:22:22;13.82;;;2.90;;
21657;SDS011;10990;48.174;9.782;2023-03-30T08:24:49;12.95;;;3.13;;
21657;SDS011;10990;48.174;9.782;2023-03-30T08:27:16;9.90;;;2.72;;
21657;SDS011;10990;48.174;9.782;2023-03-30T08:29:44;10.70;;;2.83;;
21657;SDS011;10990;48.174;9.782;2023-03-30T08:32:11;13.25;;;2.75;;
21657;SDS011;10990;48.174;9.782;2023-03-30T08:34:37;11.68;;;2.90;;
21657;SDS011;10990;48.174;9.782;2023-03-30T08:37:04;10.90;;;2.95;;
21657;SDS011;10990;48.174;9.782;2023-03-30T08:39:31;15.40;;;3.10;;
21657;SDS011;10990;48.174;9.782;2023-03-30T08:42:03;10.27;;;3.00;;
21657;SDS011;10990;48.174;9.782;2023-03-30T08:44:38;11.40;;;2.85;;
21657;SDS011;10990;48.174;9.782;2023-03-30T08:47:09;9.00;;;2.90;;
21657;SDS011;10990;48.174;9.782;2023-03-30T08:49:40;9.27;;;2.65;;
21657;SDS011;10990;48.174;9.782;2023-03-30T08:52:12;7.55;;;2.50;;
21657;SDS011;10990;48.174;9.782;2023-03-30T08:54:46;9.38;;;2.67;;
21657;SDS011;10990;48.174;9.782;2023-03-30T08:57:14;10.70;;;3.05;;
21657;SDS011;10990;48.174;9.782;2023-03-30T08:59:49;9.02;;;2.45;;
21657;SDS011;10990;48.174;9.782;2023-03-30T09:02:23;10.45;;;2.60;;
21657;SDS011;10990;48.174;9.782;2023-03-30T09:04:55;9.68;;;3.05;;
21657;SDS011;10990;48.174;9.782;2023-03-30T09:07:26;12.52;;;2.92;;
21657;SDS011;10990;48.174;9.782;2023-03-30T09:09:57;13.60;;;3.13;;
21657;SDS011;10990;48.174;9.782;2023-03-30T09:12:27;12.45;;;2.80;;
21657;SDS011;10990;48.174;9.782;2023-03-30T09:15:02;11.70;;;2.83;;
21657;SDS011;10990;48.174;9.782;2023-03-30T09:17:34;16.25;;;3.33;;
21657;SDS011;10990;48.174;9.782;2023-03-30T09:20:07;10.57;;;2.97;;
21657;SDS011;10990;48.174;9.782;2023-03-30T09:22:42;13.43;;;3.10;;
21657;SDS011;10990;48.174;9.782;2023-03-30T09:25:11;11.38;;;2.90;;
21657;SDS011;10990;48.174;9.782;2023-03-30T09:27:43;9.95;;;3.33;;
21657;SDS011;10990;48.174;9.782;2023-03-30T09:30:18;11.85;;;3.00;;
21657;SDS011;10990;48.174;9.782;2023-03-30T09:32:50;12.30;;;3.00;;
21657;SDS011;10990;48.174;9.782;2023-03-30T09:35:25;9.68;;;2.92;;
21657;SDS011;10990;48.174;9.782;2023-03-30T09:38:00;10.02;;;2.97;;
21657;SDS011;10990;48.174;9.782;2023-03-30T09:40:33;11.60;;;2.97;;
21657;SDS011;10990;48.174;9.782;2023-03-30T09:43:12;10.38;;;2.83;;
21657;SDS011;10990;48.174;9.782;2023-03-30T09:45:41;13.27;;;3.30;;
21657;SDS011;10990;48.174;9.782;2023-03-30T09:48:11;9.30;;;2.90;;
21657;SDS011;10990;48.174;9.782;2023-03-30T09:50:42;10.93;;;2.90;;
21657;SDS011;10990;48.174;9.782;2023-03-30T09:53:17;10.57;;;3.22;;
21657;SDS011;10990;48.174;9.782;2023-03-30T09:55:59;12.52;;;3.15;;
21657;SDS011;10990;48.174;9.782;2023-03-30T09:58:28;10.15;;;3.15;;
21657;SDS011;10990;48.174;9.782;2023-03-30T10:01:00;11.50;;;3.13;;
21657;SDS011;10990;48.174;9.782;2023-03-30T10:03:29;9.77;;;3.00;;
21657;SDS011;10990;48.174;9.782;2023-03-30T10:06:00;15.07;;;3.45;;
21657;SDS011;10990;48.174;9.782;2023-03-30T10:08:30;15.30;;;3.42;;
21657;SDS011;10990;48.174;9.782;2023-03-30T10:10:57;11.23;;;3.00;;
21657;SDS011;10990;48.174;9.782;2023-03-30T10:13:26;12.00;;;3.63;;
21657;SDS011;10990;48.174;9.782;2023-03-30T10:15:56;12.10;;;3.50;;
21657;SDS011;10990;48.174;9.782;2023-03-30T10:18:33;14.25;;;3.05;;
21657;SDS011;10990;48.174;9.782;2023-03-30T10:21:13;12.10;;;3.15;;
21657;SDS011;10990;48.174;9.782;2023-03-30T10:23:44;12.30;;;2.60;;
21657;SDS011;10990;48.174;9.782;2023-03-30T10:26:12;7.55;;;2.22;;
21657;SDS011;10990;48.174;9.782;2023-03-30T10:28:49;5.18;;;2.45;;
21657;SDS011;10990;48.174;9.782;2023-03-30T10:31:18;6.72;;;1.90;;
21657;SDS011;10990;48.174;9.782;2023-03-30T10:33:47;6.07;;;2.15;;
21657;SDS011;10990;48.174;9.782;2023-03-30T10:36:15;4.97;;;1.77;;
21657;SDS011;10990;48.174;9.782;2023-03-30T10:38:43;8.20;;;2.20;;
21657;SDS011;10990;48.174;9.782;2023-03-30T10:41:11;5.28;;;1.90;;
21657;SDS011;10990;48.174;9.782;2023-03-30T10:43:41;8.23;;;1.85;;
21657;SDS011;10990;48.174;9.782;2023-03-30T10:46:09;5.85;;;2.30;;
21657;SDS011;10990;48.174;9.782;2023-03-30T10:48:42;6.47;;;2.08;;
21657;SDS011;10990;48.174;9.782;2023-03-30T10:51:37;6.68;;;1.80;;
21657;SDS011;10990;48.174;9.782;2023-03-30T10:54:14;4.93;;;1.92;;
21657;SDS011;10990;48.174;9.782;2023-03-30T10:56:47;3.63;;;2.10;;
21657;SDS011;10990;48.174;9.782;2023-03-30T10:59:22;6.38;;;2.25;;
21657;SDS011;10990;48.174;9.782;2023-03-30T11:02:01;6.60;;;2.53;;
21657;SDS011;10990;48.174;9.782;2023-03-30T11:04:56;6.07;;;2.10;;
21657;SDS011;10990;48.174;9.782;2023-03-30T11:07:29;5.38;;;1.85;;
21657;SDS011;10990;48.174;9.782;2023-03-30T11:10:02;6.65;;;1.90;;
21657;SDS011;10990;48.174;9.782;2023-03-30T11:12:37;5.75;;;1.90;;
21657;SDS011;10990;48.174;9.782;2023-03-30T11:15:08;6.72;;;2.25;;
21657;SDS011;10990;48.174;9.782;2023-03-30T11:17:43;8.00;;;2.30;;
21657;SDS011;10990;48.174;9.782;2023-03-30T11:20:23;8.63;;;2.20;;
21657;SDS011;10990;48.174;9.782;2023-03-30T11:22:54;8.80;;;2.30;;
21657;SDS011;10990;48.174;9.782;2023-03-30T11:25:28;8.63;;;2.42;;
21657;SDS011;10990;48.174;9.782;2023-03-30T11:27:58;6.00;;;2.10;;
21657;SDS011;10990;48.174;9.782;2023-03-30T11:30:37;7.00;;;2.40;;
21657;SDS011;10990;48.174;9.782;2023-03-30T11:33:07;6.40;;;2.33;;
21657;SDS011;10990;48.174;9.782;2023-03-30T11:35:45;5.68;;;2.00;;
21657;SDS011;10990;48.174;9.782;2023-03-30T11:38:14;4.75;;;1.98;;
21657;SDS011;10990;48.174;9.782;2023-03-30T11:40:44;7.82;;;2.00;;
21657;SDS011;10990;48.174;9.782;2023-03-30T11:43:12;6.97;;;2.55;;
21657;SDS011;10990;48.174;9.782;2023-03-30T11:45:44;6.43;;;2.25;;
21657;SDS011;10990;48.174;9.782;2023-03-30T11:51:30;6.40;;;2.92;;
21657;SDS011;10990;48.174;9.782;2023-03-30T11:54:09;5.72;;;2.35;;
21657;SDS011;10990;48.174;9.782;2023-03-30T11:57:02;5.63;;;2.50;;
21657;SDS011;10990;48.174;9.782;2023-03-30T11:59:36;5.22;;;2.30;;
21657;SDS011;10990;48.174;9.782;2023-03-30T12:02:16;4.32;;;2.20;;
21657;SDS011;10990;48.174;9.782;2023-03-30T12:04:54;7.78;;;2.20;;
21657;SDS011;10990;48.174;9.782;2023-03-30T12:07:32;4.85;;;1.90;;
21657;SDS011;10990;48.174;9.782;2023-03-30T12:10:08;6.80;;;2.60;;
21657;SDS011;10990;48.174;9.782;2023-03-30T12:12:40;5.35;;;2.28;;
21657;SDS011;10990;48.174;9.782;2023-03-30T12:15:11;7.13;;;2.38;;
21657;SDS011;10990;48.174;9.782;2023-03-30T12:17:51;6.50;;;2.30;;
21657;SDS011;10990;48.174;9.782;2023-03-30T12:20:27;9.15;;;2.70;;
21657;SDS011;10990;48.174;9.782;2023-03-30T12:23:03;6.50;;;2.75;;
21657;SDS011;10990;48.174;9.782;2023-03-30T12:25:43;7.47;;;2.75;;
21657;SDS011;10990;48.174;9.782;2023-03-30T12:28:22;9.30;;;3.13;;
21657;SDS011;10990;48.174;9.782;2023-03-30T12:30:52;7.82;;;2.95;;
21657;SDS011;10990;48.174;9.782;2023-03-30T12:33:24;8.00;;;2.80;;
21657;SDS011;10990;48.174;9.782;2023-03-30T12:35:57;6.65;;;2.75;;
21657;SDS011;10990;48.174;9.782;2023-03-30T12:38:26;8.57;;;2.90;;
21657;SDS011;10990;48.174;9.782;2023-03-30T12:41:07;6.25;;;2.70;;
21657;SDS011;10990;48.174;9.782;2023-03-30T12:44:00;9.18;;;2.92;;
21657;SDS011;10990;48.174;9.782;2023-03-30T12:46:35;6.55;;;3.00;;
21657;SDS011;10990;48.174;9.782;2023-03-30T12:49:11;7.05;;;3.10;;
21657;SDS011;10990;48.174;9.782;2023-03-30T12:51:57;13.60;;;3.60;;
21657;SDS011;10990;48.174;9.782;2023-03-30T12:54:47;10.02;;;3.03;;
21657;SDS011;10990;48.174;9.782;2023-03-30T12:57:31;5.85;;;2.90;;
21657;SDS011;10990;48.174;9.782;2023-03-30T13:00:24;9.75;;;3.45;;
21657;SDS011;10990;48.174;9.782;2023-03-30T13:03:22;8.20;;;3.30;;
21657;SDS011;10990;48.174;9.782;2023-03-30T13:05:54;10.18;;;3.13;;
21657;SDS011;10990;48.174;9.782;2023-03-30T13:08:27;6.38;;;2.85;;
21657;SDS011;10990;48.174;9.782;2023-03-30T13:11:06;9.80;;;3.10;;
21657;SDS011;10990;48.174;9.782;2023-03-30T13:13:49;7.28;;;3.50;;
21657;SDS011;10990;48.174;9.782;2023-03-30T13:19:24;9.00;;;3.47;;
21657;SDS011;10990;48.174;9.782;2023-03-30T13:21:55;6.75;;;3.05;;
21657;SDS011;10990;48.174;9.782;2023-03-30T13:24:24;7.03;;;2.83;;
21657;SDS011;10990;48.174;9.782;2023-03-30T13:27:10;8.18;;;3.20;;
21657;SDS011;10990;48.174;9.782;2023-03-30T13:29:48;10.32;;;3.20;;
21657;SDS011;10990;48.174;9.782;2023-03-30T13:32:18;9.60;;;3.25;;
21657;SDS011;10990;48.174;9.782;2023-03-30T13:34:54;9.52;;;4.00;;
21657;SDS011;10990;48.174;9.782;2023-03-30T13:37:31;10.20;;;3.40;;
21657;SDS011;10990;48.174;9.782;2023-03-30T13:40:14;8.82;;;3.58;;
21657;SDS011;10990;48.174;9.782;2023-03-30T13:42:48;9.65;;;3.70;;
21657;SDS011;10990;48.174;9.782;2023-03-30T13:45:32;8.20;;;3.63;;
21657;SDS011;10990;48.174;9.782;2023-03-30T13:48:08;6.65;;;3.50;;
21657;SDS011;10990;48.174;9.782;2023-03-30T13:50:56;9.80;;;3.60;;
21657;SDS011;10990;48.174;9.782;2023-03-30T13:53:25;11.13;;;4.20;;
21657;SDS011;10990;48.174;9.782;2023-03-30T13:55:54;10.07;;;4.22;;
21657;SDS011;10990;48.174;9.782;2023-03-30T13:58:23;10.05;;;3.40;;
21657;SDS011;10990;48.174;9.782;2023-03-30T14:00:55;11.30;;;3.60;;
21657;SDS011;10990;48.174;9.782;2023-03-30T14:03:33;8.32;;;3.95;;
21657;SDS011;10990;48.174;9.782;2023-03-30T14:06:04;12.93;;;3.72;;
21657;SDS011;10990;48.174;9.782;2023-03-30T14:08:33;11.73;;;3.58;;
21657;SDS011;10990;48.174;9.782;2023-03-30T14:11:02;6.95;;;3.40;;
21657;SDS011;10990;48.174;9.782;2023-03-30T14:13:34;9.13;;;3.50;;
21657;SDS011;10990;48.174;9.782;2023-03-30T14:16:02;7.88;;;3.75;;
21657;SDS011;10990;48.174;9.782;2023-03-30T14:18:29;9.60;;;3.63;;
21657;SDS011;10990;48.174;9.782;2023-03-30T14:20:56;6.28;;;3.05;;
21657;SDS011;10990;48.174;9.782;2023-03-30T14:23:27;7.78;;;3.38;;
21657;SDS011;10990;48.174;9.782;2023-03-30T14:25:59;11.35;;;3.17;;
21657;SDS011;10990;48.174;9.782;2023-03-30T14:28:29;7.70;;;3.00;;
21657;SDS011;10990;48.174;9.782;2023-03-30T14:31:00;8.35;;;3.10;;
21657;SDS011;10990;48.174;9.782;2023-03-30T14:33:29;9.70;;;2.75;;
21657;SDS011;10990;48.174;9.782;2023-03-30T14:35:58;8.70;;;2.72;;
21657;SDS011;10990;48.174;9.782;2023-03-30T14:38:26;5.45;;;2.35;;
21657;SDS011;10990;48.174;9.782;2023-03-30T14:40:55;5.22;;;2.50;;
21657;SDS011;10990;48.174;9.782;2023-03-30T14:43:23;6.63;;;2.40;;
21657;SDS011;10990;48.174;9.782;2023-03-30T14:45:50;6.00;;;2.50;;
21657;SDS011;10990;48.174;9.782;2023-03-30T14:48:21;6.53;;;2.42;;
21657;SDS011;10990;48.174;9.782;2023-03-30T14:50:50;6.63;;;2.55;;
21657;SDS011;10990;48.174;9.782;2023-03-30T14:53:18;5.43;;;2.60;;
21657;SDS011;10990;48.174;9.782;2023-03-30T14:55:49;4.93;;;2.38;;
21657;SDS011;10990;48.174;9.782;2023-03-30T14:58:21;9.07;;;2.75;;
21657;SDS011;10990;48.174;9.782;2023-03-30T15:00:48;7.88;;;2.88;;
21657;SDS011;10990;48.174;9.782;2023-03-30T15:03:15;7.10;;;2.30;;
21657;SDS011;10990;48.174;9.782;2023-03-30T15:05:44;5.78;;;2.45;;
21657;SDS011;10990;48.174;9.782;2023-03-30T15:08:12;6.20;;;2.67;;
21657;SDS011;10990;48.174;9.782;2023-03-30T15:10:47;6.38;;;2.55;;
21657;SDS011;10990;48.174;9.782;2023-03-30T15:13:19;5.78;;;2.55;;
21657;SDS011;10990;48.174;9.782;2023-03-30T15:15:51;6.85;;;2.95;;
21657;SDS011;10990;48.174;9.782;2023-03-30T15:18:19;7.05;;;2.78;;
21657;SDS011;10990;48.174;9.782;2023-03-30T15:20:51;6.80;;;2.72;;
21657;SDS011;10990;48.174;9.782;2023-03-30T15:23:20;7.88;;;2.50;;
21657;SDS011;10990;48.174;9.782;2023-03-30T15:25:47;8.20;;;2.60;;
21657;SDS011;10990;48.174;9.782;2023-03-30T15:28:16;4.93;;;2.50;;
21657;SDS011;10990;48.174;9.782;2023-03-30T15:30:45;8.40;;;2.67;;
21657;SDS011;10990;48.174;9.782;2023-03-30T15:33:19;6.82;;;2.80;;
21657;SDS011;10990;48.174;9.782;2023-03-30T15:35:48;7.32;;;2.53;;
21657;SDS011;10990;48.174;9.782;2023-03-30T15:38:16;6.88;;;3.05;;
21657;SDS011;10990;48.174;9.782;2023-03-30T15:40:44;9.70;;;2.50;;
21657;SDS011;10990;48.174;9.782;2023-03-30T15:43:13;5.82;;;2.70;;